Terminal Aerodrome Forecast
Issued by NWS

Home | Current Version | Previous Version | Text Only | Print | Product List | Glossary On
Versions: 1 2 3 4 5 6 7 8 9 10 11 12 13 14 15 16 17 18 19
000
FTUS43 KILX 261100
TAFBMI
TAF
KBMI 261131Z 2612/2712 32005KT P6SM SCT015 BKN080
     FM261600 23007KT P6SM SCT015 OVC050
      TEMPO 2618/2621 3SM -SN BR OVC015
     FM262100 18008KT 5SM BR VCSH OVC012
     FM270200 19006KT 4SM BR BKN006 OVC012=

USA.gov is the U.S. government's official web portal to all federal, state and local government web resources and services.